createdAt,value
2022-09-16T00:00:02.222Z,3.45
2022-09-16T00:02:55.098Z,3.42
2022-09-16T00:05:49.612Z,2.47
2022-09-16T00:08:35.322Z,2.97
2022-09-16T00:11:20.577Z,6.70
2022-09-16T00:14:06.007Z,4.28
2022-09-16T00:16:51.476Z,3.65
2022-09-16T00:19:36.924Z,3.80
2022-09-16T00:22:22.282Z,4.65
2022-09-16T00:25:07.916Z,4.40
2022-09-16T00:27:53.981Z,5.10
2022-09-16T00:30:39.486Z,5.57
2022-09-16T00:33:24.909Z,5.43
2022-09-16T00:36:19.754Z,4.78
2022-09-16T00:39:05.079Z,5.10
2022-09-16T00:41:50.430Z,4.25
2022-09-16T00:44:51.263Z,3.78
2022-09-16T00:47:45.165Z,4.93
2022-09-16T00:50:30.501Z,4.93
2022-09-16T00:53:43.593Z,4.35
2022-09-16T00:56:34.535Z,4.80
2022-09-16T00:59:26.651Z,3.85
2022-09-16T01:02:17.002Z,4.82
2022-09-16T01:05:11.364Z,6.63
2022-09-16T01:07:57.314Z,5.80
2022-09-16T01:10:43.603Z,7.30
2022-09-16T01:13:29.420Z,4.75
2022-09-16T01:16:32.041Z,5.65
2022-09-16T01:19:35.126Z,5.20
2022-09-16T01:22:36.072Z,9.18
2022-09-16T01:25:43.001Z,7.10
2022-09-16T01:28:53.579Z,4.28
2022-09-16T01:32:11.411Z,6.03
2022-09-16T01:35:19.167Z,5.78
2022-09-16T01:39:08.118Z,6.35
2022-09-16T01:42:18.415Z,6.07
2022-09-16T01:45:17.964Z,7.40
2022-09-16T01:48:27.650Z,7.50
2022-09-16T01:51:34.155Z,8.23
2022-09-16T01:54:39.402Z,8.18
2022-09-16T01:57:33.541Z,6.47
2022-09-16T02:00:20.312Z,5.03
2022-09-16T02:03:11.744Z,6.88
2022-09-16T02:06:08.417Z,7.20
2022-09-16T02:08:57.821Z,8.27
2022-09-16T02:11:47.633Z,7.25
2022-09-16T02:14:42.873Z,5.93
2022-09-16T02:17:32.557Z,7.20
2022-09-16T02:20:24.297Z,5.97
2022-09-16T02:23:16.337Z,7.18
2022-09-16T02:26:05.532Z,13.07
2022-09-16T02:28:55.283Z,6.15
2022-09-16T02:31:43.343Z,6.75
2022-09-16T02:34:46.536Z,7.03
2022-09-16T02:37:59.521Z,7.47
2022-09-16T02:40:51.741Z,5.93
2022-09-16T02:43:37.311Z,7.40
2022-09-16T02:46:41.247Z,10.13
2022-09-16T02:49:29.888Z,8.40
2022-09-16T02:52:24.199Z,8.57
2022-09-16T02:55:40.940Z,9.25
2022-09-16T02:58:26.489Z,9.75
2022-09-16T03:01:13.692Z,7.90
2022-09-16T03:03:59.664Z,8.25
2022-09-16T03:06:46.706Z,10.43
2022-09-16T03:09:35.850Z,9.77
2022-09-16T03:12:58.633Z,8.52
2022-09-16T03:16:24.262Z,7.07
2022-09-16T03:19:34.696Z,6.03
2022-09-16T03:22:58.872Z,5.95
2022-09-16T03:26:02.544Z,5.85
2022-09-16T03:29:06.970Z,7.10
2022-09-16T03:32:03.505Z,6.93
2022-09-16T03:34:56.333Z,5.40
2022-09-16T03:37:44.868Z,7.93
2022-09-16T03:40:33.152Z,6.32
2022-09-16T03:46:04.087Z,4.47
2022-09-16T03:48:49.886Z,3.67
2022-09-16T03:51:35.352Z,4.88
2022-09-16T03:54:21.502Z,5.05
2022-09-16T03:57:07.120Z,6.30
2022-09-16T03:59:52.333Z,7.03
2022-09-16T04:02:37.971Z,5.13
2022-09-16T04:05:23.239Z,6.68
2022-09-16T04:08:08.577Z,5.05
2022-09-16T04:11:01.197Z,6.28
2022-09-16T04:13:46.835Z,3.58
2022-09-16T04:16:32.775Z,3.70
2022-09-16T04:19:18.517Z,3.78
2022-09-16T04:22:03.968Z,4.25
2022-09-16T04:24:49.458Z,6.60
2022-09-16T04:27:34.722Z,4.20
2022-09-16T04:30:20.574Z,3.85
2022-09-16T04:33:06.387Z,5.18
2022-09-16T04:35:51.577Z,5.70
2022-09-16T04:38:36.953Z,4.10
2022-09-16T04:41:24.457Z,4.93
2022-09-16T04:44:10.826Z,5.90
2022-09-16T04:46:56.248Z,10.02
2022-09-16T04:49:41.506Z,6.88
2022-09-16T04:52:26.824Z,9.10
2022-09-16T04:55:12.274Z,4.97
2022-09-16T04:57:59.653Z,4.03
2022-09-16T05:00:45.182Z,5.40
2022-09-16T05:03:30.643Z,7.43
2022-09-16T05:06:21.248Z,4.80
2022-09-16T05:09:07.513Z,7.55
2022-09-16T05:11:52.870Z,4.53
2022-09-16T05:14:38.536Z,5.47
2022-09-16T05:17:49.477Z,7.35
2022-09-16T05:20:29.737Z,6.03
2022-09-16T05:23:14.987Z,6.03
2022-09-16T05:26:12.925Z,5.75
2022-09-16T05:29:06.555Z,5.25
2022-09-16T05:31:51.827Z,7.10
2022-09-16T05:34:37.530Z,6.70
2022-09-16T05:37:23.070Z,7.53
2022-09-16T05:40:08.867Z,4.35
2022-09-16T05:42:54.573Z,11.85
2022-09-16T05:45:40.089Z,8.25
2022-09-16T05:48:26.720Z,5.22
2022-09-16T05:51:18.736Z,6.53
2022-09-16T05:54:06.108Z,7.45
2022-09-16T05:56:51.846Z,6.05
2022-09-16T05:59:37.358Z,6.15
2022-09-16T06:02:22.847Z,8.18
2022-09-16T06:05:08.141Z,8.60
2022-09-16T06:07:57.035Z,10.20
2022-09-16T06:10:42.474Z,9.10
2022-09-16T06:13:28.141Z,11.48
2022-09-16T06:16:14.698Z,10.25
2022-09-16T06:19:01.938Z,9.73
2022-09-16T06:21:47.538Z,12.88
2022-09-16T06:24:33.159Z,7.25
2022-09-16T06:27:18.366Z,12.68
2022-09-16T06:30:04.632Z,12.65
2022-09-16T06:32:50.000Z,11.20
2022-09-16T06:35:35.633Z,6.10
2022-09-16T06:38:21.302Z,7.03
2022-09-16T06:41:08.997Z,7.72
2022-09-16T06:43:54.732Z,10.50
2022-09-16T06:46:40.281Z,9.02
2022-09-16T06:49:25.622Z,8.75
2022-09-16T06:52:11.836Z,6.57
2022-09-16T06:54:57.608Z,7.35
2022-09-16T06:57:43.253Z,7.22
2022-09-16T07:00:28.691Z,5.82
2022-09-16T07:03:14.047Z,6.60
2022-09-16T07:06:04.122Z,9.85
2022-09-16T07:08:49.995Z,7.43
2022-09-16T07:11:35.327Z,7.82
2022-09-16T07:14:21.429Z,5.63
2022-09-16T07:17:08.950Z,8.60
2022-09-16T07:22:40.307Z,6.63
2022-09-16T07:25:25.661Z,7.55
2022-09-16T07:28:11.303Z,8.45
2022-09-16T07:30:57.149Z,6.80
2022-09-16T07:33:46.122Z,6.75
2022-09-16T07:36:46.666Z,5.53
2022-09-16T07:39:32.473Z,6.15
2022-09-16T07:42:17.996Z,9.10
2022-09-16T07:45:03.421Z,10.35
2022-09-16T07:47:51.791Z,6.20
2022-09-16T07:50:37.131Z,6.25
2022-09-16T07:53:25.157Z,5.95
2022-09-16T07:56:16.101Z,7.85
2022-09-16T07:59:03.838Z,6.60
2022-09-16T08:01:50.178Z,5.13
2022-09-16T08:04:35.801Z,4.47
2022-09-16T08:07:21.049Z,5.68
2022-09-16T08:10:06.692Z,5.30
2022-09-16T08:12:52.315Z,5.50
2022-09-16T08:15:37.731Z,6.78
2022-09-16T08:18:23.085Z,5.35
2022-09-16T08:21:10.795Z,6.35
2022-09-16T08:23:57.428Z,8.23
2022-09-16T08:26:43.236Z,6.78
2022-09-16T08:29:29.748Z,4.97
2022-09-16T08:32:15.377Z,6.28
2022-09-16T08:35:00.895Z,5.07
2022-09-16T08:37:50.049Z,6.20
2022-09-16T08:40:36.776Z,10.05
2022-09-16T08:43:36.838Z,7.93
2022-09-16T08:46:31.376Z,5.68
2022-09-16T08:49:28.157Z,4.70
2022-09-16T08:52:44.015Z,6.07
2022-09-16T08:55:35.215Z,9.00
2022-09-16T08:58:43.653Z,5.53
2022-09-16T09:01:35.835Z,6.15
2022-09-16T09:04:21.150Z,2.88
2022-09-16T09:07:22.085Z,4.57
2022-09-16T09:10:27.902Z,5.05
2022-09-16T09:13:14.162Z,4.75
2022-09-16T09:16:17.205Z,4.15
2022-09-16T09:19:24.588Z,5.72
2022-09-16T09:22:35.990Z,4.70
2022-09-16T09:25:33.500Z,3.83
2022-09-16T09:28:31.278Z,4.13
2022-09-16T09:31:35.331Z,5.70
2022-09-16T09:34:35.899Z,4.53
2022-09-16T09:37:39.152Z,2.58
2022-09-16T09:40:30.998Z,5.57
2022-09-16T09:43:35.532Z,3.65
2022-09-16T09:46:54.154Z,4.47
2022-09-16T09:49:46.740Z,2.83
2022-09-16T09:52:48.369Z,4.25
2022-09-16T09:55:35.114Z,6.57
2022-09-16T09:58:44.607Z,3.33
2022-09-16T10:01:30.231Z,4.47
2022-09-16T10:04:16.146Z,3.35
2022-09-16T10:10:15.283Z,3.47
2022-09-16T10:13:13.049Z,4.93
2022-09-16T10:16:14.281Z,5.32
2022-09-16T10:19:22.728Z,3.88
2022-09-16T10:22:21.320Z,3.53
2022-09-16T10:25:24.369Z,4.00
2022-09-16T10:28:25.697Z,2.55
2022-09-16T10:31:11.822Z,3.67
2022-09-16T10:34:00.240Z,4.25
2022-09-16T10:36:45.998Z,5.20
2022-09-16T10:39:32.561Z,2.92
2022-09-16T10:42:36.184Z,3.22
2022-09-16T10:45:45.894Z,3.95
2022-09-16T10:48:32.386Z,4.25
2022-09-16T10:51:26.898Z,4.68
2022-09-16T10:54:28.102Z,3.08
2022-09-16T10:57:30.480Z,3.47
2022-09-16T11:00:17.675Z,3.50
2022-09-16T11:03:31.258Z,3.92
2022-09-16T11:06:35.634Z,5.85
2022-09-16T11:09:44.471Z,4.38
2022-09-16T11:12:48.414Z,5.00
2022-09-16T11:15:37.006Z,3.17
2022-09-16T11:18:54.256Z,4.18
2022-09-16T11:21:39.799Z,7.57
2022-09-16T11:24:38.176Z,4.35
2022-09-16T11:27:45.680Z,4.45
2022-09-16T11:30:40.716Z,4.85
2022-09-16T11:33:36.634Z,4.07
2022-09-16T11:36:46.795Z,4.50
2022-09-16T11:39:49.234Z,7.28
2022-09-16T11:42:41.658Z,2.80
2022-09-16T11:45:43.721Z,2.72
2022-09-16T11:49:04.975Z,2.53
2022-09-16T11:51:55.948Z,4.00
2022-09-16T11:55:00.068Z,6.20
2022-09-16T11:57:57.051Z,3.58
2022-09-16T12:00:43.327Z,5.97
2022-09-16T12:03:59.878Z,7.50
2022-09-16T12:06:54.505Z,2.90
2022-09-16T12:09:46.918Z,8.13
2022-09-16T12:12:46.157Z,2.13
2022-09-16T12:15:41.194Z,2.00
2022-09-16T12:18:47.864Z,1.75
2022-09-16T12:21:44.806Z,1.83
2022-09-16T12:24:42.991Z,3.47
2022-09-16T12:27:40.600Z,2.17
2022-09-16T12:30:37.499Z,2.38
2022-09-16T12:33:29.052Z,2.45
2022-09-16T12:36:20.384Z,5.45
2022-09-16T12:39:11.448Z,5.35
2022-09-16T12:42:27.416Z,4.45
2022-09-16T12:45:27.535Z,8.45
2022-09-16T12:48:31.382Z,2.67
2022-09-16T12:51:35.513Z,2.67
2022-09-16T12:54:41.254Z,3.35
2022-09-16T12:57:57.927Z,6.75
2022-09-16T13:01:14.342Z,2.70
2022-09-16T13:04:09.740Z,2.33
2022-09-16T13:06:59.889Z,3.47
2022-09-16T13:09:47.481Z,2.58
2022-09-16T13:12:44.130Z,3.03
2022-09-16T13:15:36.557Z,5.03
2022-09-16T13:18:27.211Z,3.88
2022-09-16T13:21:17.573Z,4.40
2022-09-16T13:24:29.727Z,2.83
2022-09-16T13:27:34.591Z,5.85
2022-09-16T13:30:37.958Z,5.97
2022-09-16T13:33:29.535Z,7.07
2022-09-16T13:36:21.447Z,4.35
2022-09-16T13:39:12.630Z,2.42
2022-09-16T13:42:10.513Z,2.58
2022-09-16T13:44:56.126Z,2.22
2022-09-16T13:47:49.480Z,2.72
2022-09-16T13:50:36.265Z,2.70
2022-09-16T13:53:30.832Z,2.58
2022-09-16T13:56:46.393Z,4.57
2022-09-16T14:02:55.142Z,3.97
2022-09-16T14:06:07.796Z,2.13
2022-09-16T14:09:21.439Z,4.88
2022-09-16T14:12:34.892Z,4.47
2022-09-16T14:15:22.600Z,3.78
2022-09-16T14:18:13.294Z,2.72
2022-09-16T14:21:17.712Z,4.80
2022-09-16T14:24:18.293Z,4.22
2022-09-16T14:27:04.926Z,3.10
2022-09-16T14:30:00.943Z,2.85
2022-09-16T14:32:48.761Z,6.88
2022-09-16T14:35:34.161Z,2.50
2022-09-16T14:38:44.219Z,4.43
2022-09-16T14:41:44.722Z,2.90
2022-09-16T14:44:40.970Z,5.82
2022-09-16T14:47:51.094Z,3.30
2022-09-16T14:50:41.259Z,5.15
2022-09-16T14:53:35.706Z,2.80
2022-09-16T14:56:21.886Z,2.58
2022-09-16T14:59:11.682Z,3.17
2022-09-16T15:02:02.316Z,2.83
2022-09-16T15:05:02.022Z,2.83
2022-09-16T15:08:09.913Z,5.18
2022-09-16T15:10:57.815Z,3.03
2022-09-16T15:13:45.613Z,2.05
2022-09-16T15:16:31.574Z,2.58
2022-09-16T15:19:21.819Z,4.35
2022-09-16T15:22:14.260Z,1.73
2022-09-16T15:24:59.982Z,2.90
2022-09-16T15:27:45.438Z,1.95
2022-09-16T15:30:31.375Z,2.67
2022-09-16T15:33:34.870Z,3.50
2022-09-16T15:36:42.997Z,3.53
2022-09-16T15:39:33.742Z,4.50
2022-09-16T15:42:25.829Z,4.53
2022-09-16T15:45:18.397Z,3.72
2022-09-16T15:48:23.067Z,2.58
2022-09-16T15:51:23.724Z,2.03
2022-09-16T15:54:14.422Z,1.80
2022-09-16T15:57:05.998Z,2.17
2022-09-16T15:59:54.876Z,4.07
2022-09-16T16:02:50.357Z,2.28
2022-09-16T16:05:36.613Z,2.13
2022-09-16T16:08:40.376Z,2.40
2022-09-16T16:11:25.861Z,1.50
2022-09-16T16:14:11.192Z,2.05
2022-09-16T16:17:12.362Z,2.17
2022-09-16T16:19:58.734Z,2.47
2022-09-16T16:22:45.706Z,1.98
2022-09-16T16:25:31.515Z,4.05
2022-09-16T16:28:16.953Z,2.08
2022-09-16T16:31:12.762Z,2.70
2022-09-16T16:33:59.123Z,1.85
2022-09-16T16:36:44.824Z,3.72
2022-09-16T16:39:30.785Z,3.35
2022-09-16T16:42:16.644Z,3.70
2022-09-16T16:45:01.964Z,4.00
2022-09-16T16:47:47.746Z,3.60
2022-09-16T16:50:33.564Z,4.45
2022-09-16T16:53:18.876Z,4.20
2022-09-16T16:56:14.500Z,3.63
2022-09-16T16:59:00.705Z,2.35
2022-09-16T17:01:49.110Z,2.47
2022-09-16T17:04:34.873Z,4.45
2022-09-16T17:07:28.226Z,4.50
2022-09-16T17:10:13.604Z,2.60
2022-09-16T17:12:59.177Z,5.32
2022-09-16T17:15:44.545Z,3.72
2022-09-16T17:18:30.065Z,6.15
2022-09-16T17:21:21.379Z,6.50
2022-09-16T17:24:07.346Z,4.85
2022-09-16T17:26:52.870Z,3.50
2022-09-16T17:29:38.341Z,2.88
2022-09-16T17:32:23.648Z,2.80
2022-09-16T17:35:09.384Z,6.53
2022-09-16T17:37:54.981Z,2.47
2022-09-16T17:40:40.627Z,3.42
2022-09-16T17:43:31.377Z,4.97
2022-09-16T17:46:20.363Z,4.55
2022-09-16T17:51:53.554Z,2.85
2022-09-16T17:54:40.837Z,7.15
2022-09-16T17:57:29.977Z,3.85
2022-09-16T18:00:19.063Z,1.98
2022-09-16T18:03:05.601Z,3.65
2022-09-16T18:05:51.520Z,3.25
2022-09-16T18:08:37.126Z,3.17
2022-09-16T18:11:23.016Z,3.05
2022-09-16T18:14:11.644Z,4.20
2022-09-16T18:16:57.284Z,3.22
2022-09-16T18:19:43.086Z,2.22
2022-09-16T18:22:28.454Z,3.78
2022-09-16T18:25:14.113Z,2.33
2022-09-16T18:27:59.868Z,2.90
2022-09-16T18:30:45.239Z,2.85
2022-09-16T18:33:30.729Z,2.42
2022-09-16T18:36:18.329Z,3.50
2022-09-16T18:39:05.313Z,2.50
2022-09-16T18:41:51.009Z,1.77
2022-09-16T18:44:36.483Z,2.20
2022-09-16T18:47:21.881Z,2.08
2022-09-16T18:50:08.160Z,2.03
2022-09-16T18:52:53.821Z,2.47
2022-09-16T18:55:38.973Z,2.50
2022-09-16T18:58:24.517Z,3.03
2022-09-16T19:01:28.776Z,2.65
2022-09-16T19:04:16.975Z,3.28
2022-09-16T19:07:08.271Z,2.75
2022-09-16T19:09:54.719Z,2.33
2022-09-16T19:12:39.999Z,5.13
2022-09-16T19:15:26.009Z,2.38
2022-09-16T19:18:12.643Z,2.83
2022-09-16T19:20:58.048Z,1.95
2022-09-16T19:23:45.106Z,2.50
2022-09-16T19:26:35.813Z,3.15
2022-09-16T19:29:21.850Z,6.38
2022-09-16T19:32:07.596Z,3.58
2022-09-16T19:34:52.750Z,3.05
2022-09-16T19:37:38.000Z,2.90
2022-09-16T19:40:23.590Z,2.67
2022-09-16T19:43:08.856Z,2.55
2022-09-16T19:45:54.454Z,2.17
2022-09-16T19:48:42.991Z,2.10
2022-09-16T19:51:29.117Z,3.67
2022-09-16T19:54:14.645Z,3.33
2022-09-16T19:57:00.127Z,3.13
2022-09-16T19:59:46.419Z,2.78
2022-09-16T20:02:32.284Z,3.33
2022-09-16T20:05:17.807Z,2.40
2022-09-16T20:08:03.093Z,3.35
2022-09-16T20:10:48.515Z,1.70
2022-09-16T20:13:34.427Z,3.13
2022-09-16T20:16:21.896Z,2.67
2022-09-16T20:19:10.012Z,1.95
2022-09-16T20:21:55.755Z,2.13
2022-09-16T20:24:41.964Z,2.35
2022-09-16T20:27:27.603Z,1.73
2022-09-16T20:30:13.186Z,1.88
2022-09-16T20:32:58.860Z,1.45
2022-09-16T20:35:44.184Z,1.63
2022-09-16T20:38:29.738Z,3.85
2022-09-16T20:41:24.161Z,1.90
2022-09-16T20:44:14.292Z,1.65
2022-09-16T20:46:59.767Z,1.60
2022-09-16T20:49:45.160Z,1.40
2022-09-16T20:52:31.149Z,2.25
2022-09-16T20:55:16.752Z,1.98
2022-09-16T20:58:02.465Z,2.55
2022-09-16T21:00:49.783Z,2.15
2022-09-16T21:03:35.231Z,2.20
2022-09-16T21:06:21.761Z,1.70
2022-09-16T21:09:10.140Z,1.92
2022-09-16T21:11:55.954Z,3.10
2022-09-16T21:14:41.309Z,3.40
2022-09-16T21:17:28.669Z,1.52
2022-09-16T21:20:14.172Z,2.58
2022-09-16T21:23:00.003Z,3.72
2022-09-16T21:25:45.589Z,2.80
2022-09-16T21:28:31.990Z,2.17
2022-09-16T21:31:18.860Z,2.28
2022-09-16T21:34:06.637Z,1.90
2022-09-16T21:39:37.750Z,1.98
2022-09-16T21:42:23.133Z,3.45
2022-09-16T21:45:08.831Z,4.55
2022-09-16T21:47:55.185Z,2.33
2022-09-16T21:50:40.764Z,4.22
2022-09-16T21:53:26.446Z,2.88
2022-09-16T21:56:13.992Z,3.05
2022-09-16T22:01:45.717Z,1.70
2022-09-16T22:04:31.393Z,1.52
2022-09-16T22:07:17.088Z,3.22
2022-09-16T22:10:02.410Z,2.50
2022-09-16T22:12:47.893Z,2.63
2022-09-16T22:15:33.640Z,1.88
2022-09-16T22:18:18.828Z,2.65
2022-09-16T22:21:07.151Z,2.47
2022-09-16T22:23:52.899Z,1.95
2022-09-16T22:26:38.972Z,2.30
2022-09-16T22:29:24.512Z,4.55
2022-09-16T22:32:10.006Z,2.45
2022-09-16T22:34:55.722Z,4.28
2022-09-16T22:37:41.192Z,2.28
2022-09-16T22:40:26.616Z,2.85
2022-09-16T22:43:11.986Z,3.55
2022-09-16T22:46:06.597Z,3.17
2022-09-16T22:48:52.753Z,4.85
2022-09-16T22:51:38.482Z,2.55
2022-09-16T22:54:24.233Z,2.20
2022-09-16T22:57:09.662Z,2.20
2022-09-16T22:59:55.053Z,1.58
2022-09-16T23:02:40.502Z,2.88
2022-09-16T23:05:25.996Z,2.78
2022-09-16T23:08:11.328Z,2.03
2022-09-16T23:10:56.850Z,2.28
2022-09-16T23:13:43.576Z,3.83
2022-09-16T23:16:31.512Z,2.15
2022-09-16T23:22:02.770Z,2.25
2022-09-16T23:24:48.146Z,2.22
2022-09-16T23:27:33.431Z,4.18
2022-09-16T23:30:19.234Z,3.03
2022-09-16T23:33:04.674Z,3.40
2022-09-16T23:35:50.765Z,2.00
2022-09-16T23:38:37.642Z,2.53
2022-09-16T23:41:27.702Z,2.85
2022-09-16T23:44:14.854Z,1.70
2022-09-16T23:47:00.673Z,3.05
2022-09-16T23:49:46.372Z,2.58
2022-09-16T23:52:32.021Z,2.30
2022-09-16T23:55:17.678Z,2.75
2022-09-16T23:58:03.055Z,6.07
